createdAt,value
2023-02-27T00:00:02.010Z,2.03
2023-02-27T00:02:31.653Z,1.80
2023-02-27T00:05:00.748Z,2.27
2023-02-27T00:07:29.241Z,2.13
2023-02-27T00:09:57.498Z,2.20
2023-02-27T00:12:25.822Z,1.90
2023-02-27T00:14:54.159Z,1.83
2023-02-27T00:17:25.789Z,2.40
2023-02-27T00:19:55.488Z,2.30
2023-02-27T00:22:23.769Z,2.80
2023-02-27T00:24:51.921Z,2.60
2023-02-27T00:27:20.424Z,2.10
2023-02-27T00:29:48.792Z,2.90
2023-02-27T00:32:17.216Z,2.50
2023-02-27T00:34:45.672Z,2.30
2023-02-27T00:37:15.770Z,2.17
2023-02-27T00:39:44.059Z,2.20
2023-02-27T00:42:12.409Z,2.63
2023-02-27T00:44:42.055Z,2.10
2023-02-27T00:47:10.366Z,2.00
2023-02-27T00:49:38.641Z,2.23
2023-02-27T00:52:07.163Z,3.17
2023-02-27T00:54:36.878Z,2.53
2023-02-27T00:57:05.438Z,2.67
2023-02-27T00:59:33.705Z,2.40
2023-02-27T01:02:01.994Z,2.13
2023-02-27T01:04:30.368Z,2.53
2023-02-27T01:06:58.606Z,2.60
2023-02-27T01:09:26.778Z,2.60
2023-02-27T01:11:57.549Z,1.83
2023-02-27T01:14:25.874Z,2.37
2023-02-27T01:16:54.212Z,2.33
2023-02-27T01:19:22.560Z,1.90
2023-02-27T01:21:50.821Z,2.47
2023-02-27T01:24:20.157Z,2.10
2023-02-27T01:26:48.882Z,2.43
2023-02-27T01:29:18.594Z,2.50
2023-02-27T01:31:47.269Z,2.27
2023-02-27T01:34:15.841Z,2.63
2023-02-27T01:36:44.068Z,2.67
2023-02-27T01:39:12.351Z,2.57
2023-02-27T01:41:40.637Z,2.50
2023-02-27T01:44:13.208Z,2.67
2023-02-27T01:46:43.268Z,2.17
2023-02-27T01:49:21.116Z,2.10
2023-02-27T01:51:52.451Z,2.47
2023-02-27T01:54:25.523Z,2.90
2023-02-27T01:56:53.977Z,2.30
2023-02-27T01:59:23.348Z,2.20
2023-02-27T02:01:53.568Z,2.27
2023-02-27T02:04:27.726Z,2.30
2023-02-27T02:07:04.996Z,2.50
2023-02-27T02:09:37.494Z,2.10
2023-02-27T02:12:06.393Z,2.17
2023-02-27T02:14:34.717Z,2.97
2023-02-27T02:17:15.911Z,2.10
2023-02-27T02:20:33.886Z,2.07
2023-02-27T02:23:52.180Z,2.13
2023-02-27T02:26:46.522Z,2.33
2023-02-27T02:29:58.877Z,2.33
2023-02-27T02:33:33.503Z,2.17
2023-02-27T02:36:56.185Z,2.00
2023-02-27T02:39:53.085Z,2.20
2023-02-27T02:42:27.320Z,2.08
2023-02-27T02:45:11.212Z,2.70
2023-02-27T02:47:56.537Z,2.37
2023-02-27T02:50:31.997Z,2.50
2023-02-27T02:53:09.348Z,2.30
2023-02-27T02:55:47.139Z,2.20
2023-02-27T02:58:23.355Z,2.40
2023-02-27T03:00:56.885Z,1.83
2023-02-27T03:03:31.037Z,2.60
2023-02-27T03:06:08.261Z,1.93
2023-02-27T03:08:44.297Z,1.93
2023-02-27T03:11:14.393Z,2.33
2023-02-27T03:13:51.313Z,1.90
2023-02-27T03:16:26.128Z,1.97
2023-02-27T03:19:01.092Z,2.00
2023-02-27T03:21:36.635Z,2.03
2023-02-27T03:24:10.472Z,1.80
2023-02-27T03:26:44.219Z,1.80
2023-02-27T03:29:18.189Z,1.60
2023-02-27T03:31:51.228Z,1.77
2023-02-27T03:34:24.426Z,1.50
2023-02-27T03:37:02.237Z,1.53
2023-02-27T03:39:43.109Z,1.50
2023-02-27T03:42:22.433Z,1.77
2023-02-27T03:44:58.016Z,1.50
2023-02-27T03:47:26.516Z,1.60
2023-02-27T03:49:55.776Z,1.53
2023-02-27T03:52:25.318Z,1.67
2023-02-27T03:54:59.890Z,1.57
2023-02-27T03:57:30.507Z,1.83
2023-02-27T03:59:59.334Z,1.47
2023-02-27T04:02:28.733Z,1.60
2023-02-27T04:04:56.996Z,1.90
2023-02-27T04:07:32.642Z,2.17
2023-02-27T04:10:20.562Z,1.45
2023-02-27T04:13:22.417Z,1.60
2023-02-27T04:16:34.206Z,1.53
2023-02-27T04:19:18.897Z,1.73
2023-02-27T04:21:59.268Z,1.50
2023-02-27T04:24:38.528Z,1.50
2023-02-27T04:27:21.113Z,1.43
2023-02-27T04:29:57.334Z,1.50
2023-02-27T04:32:34.745Z,1.40
2023-02-27T04:35:09.799Z,1.30
2023-02-27T04:37:46.138Z,1.30
2023-02-27T04:40:20.497Z,1.43
2023-02-27T04:42:54.993Z,1.70
2023-02-27T04:45:28.625Z,1.33
2023-02-27T04:48:02.619Z,1.10
2023-02-27T04:50:38.445Z,1.33
2023-02-27T04:53:17.478Z,1.08
2023-02-27T04:55:52.361Z,1.30
2023-02-27T04:58:25.431Z,1.70
2023-02-27T05:01:02.545Z,1.17
2023-02-27T05:03:35.033Z,1.40
2023-02-27T05:06:04.688Z,1.13
2023-02-27T05:08:42.647Z,1.00
2023-02-27T05:11:17.102Z,1.00
2023-02-27T05:13:50.374Z,1.30
2023-02-27T05:16:28.029Z,1.10
2023-02-27T05:18:57.804Z,1.33
2023-02-27T05:21:31.728Z,1.07
2023-02-27T05:24:15.555Z,1.27
2023-02-27T05:27:10.260Z,1.30
2023-02-27T05:29:46.189Z,1.00
2023-02-27T05:32:27.897Z,1.23
2023-02-27T05:35:06.631Z,1.27
2023-02-27T05:37:43.171Z,1.20
2023-02-27T05:40:16.722Z,1.37
2023-02-27T05:42:50.468Z,1.00
2023-02-27T05:45:22.000Z,1.50
2023-02-27T05:47:59.445Z,1.00
2023-02-27T05:50:31.796Z,1.20
2023-02-27T05:53:10.500Z,1.17
2023-02-27T05:55:42.412Z,1.30
2023-02-27T05:58:19.955Z,1.07
2023-02-27T06:00:53.052Z,1.23
2023-02-27T06:03:23.419Z,1.00
2023-02-27T06:05:54.140Z,0.80
2023-02-27T06:08:23.379Z,1.10
2023-02-27T06:10:51.904Z,0.90
2023-02-27T06:13:20.495Z,1.50
2023-02-27T06:15:49.165Z,1.27
2023-02-27T06:18:18.393Z,1.10
2023-02-27T06:20:49.328Z,1.40
2023-02-27T06:23:18.290Z,0.93
2023-02-27T06:25:47.102Z,0.83
2023-02-27T06:28:15.565Z,1.07
2023-02-27T06:30:46.218Z,1.20
2023-02-27T06:33:14.841Z,0.80
2023-02-27T06:35:43.212Z,1.40
2023-02-27T06:38:12.866Z,0.90
2023-02-27T06:40:41.228Z,0.83
2023-02-27T06:43:09.567Z,1.00
2023-02-27T06:45:37.885Z,1.00
2023-02-27T06:48:06.600Z,0.80
2023-02-27T06:50:35.253Z,1.03
2023-02-27T06:53:04.364Z,1.20
2023-02-27T06:55:34.081Z,0.93
2023-02-27T06:58:02.376Z,0.80
2023-02-27T07:00:30.784Z,0.90
2023-02-27T07:02:59.027Z,1.20
2023-02-27T07:05:27.230Z,1.17
2023-02-27T07:07:57.149Z,1.00
2023-02-27T07:10:26.778Z,1.00
2023-02-27T07:12:56.501Z,1.03
2023-02-27T07:15:24.831Z,1.07
2023-02-27T07:17:54.419Z,1.00
2023-02-27T07:20:22.743Z,0.80
2023-02-27T07:22:51.052Z,0.90
2023-02-27T07:25:19.633Z,1.37
2023-02-27T07:27:49.712Z,1.10
2023-02-27T07:30:20.589Z,0.80
2023-02-27T07:32:48.935Z,1.43
2023-02-27T07:35:18.687Z,1.00
2023-02-27T07:37:48.520Z,1.27
2023-02-27T07:40:16.799Z,1.00
2023-02-27T07:42:45.273Z,0.80
2023-02-27T07:45:13.658Z,0.83
2023-02-27T07:47:43.302Z,0.80
2023-02-27T07:50:14.063Z,1.17
2023-02-27T07:52:42.871Z,1.23
2023-02-27T07:55:13.122Z,1.10
2023-02-27T07:57:41.642Z,1.10
2023-02-27T08:00:11.833Z,1.07
2023-02-27T08:02:41.838Z,0.80
2023-02-27T08:05:10.796Z,0.87
2023-02-27T08:07:38.980Z,1.23
2023-02-27T08:10:08.637Z,1.07
2023-02-27T08:12:36.893Z,1.33
2023-02-27T08:15:07.237Z,1.00
2023-02-27T08:17:35.541Z,1.10
2023-02-27T08:20:07.444Z,0.93
2023-02-27T08:22:36.324Z,0.90
2023-02-27T08:25:05.918Z,1.10
2023-02-27T08:27:34.364Z,1.20
2023-02-27T08:30:02.913Z,1.10
2023-02-27T08:32:31.563Z,1.17
2023-02-27T08:34:59.873Z,1.27
2023-02-27T08:37:29.731Z,1.03
2023-02-27T08:39:57.997Z,0.97
2023-02-27T08:42:26.973Z,0.90
2023-02-27T08:44:56.517Z,1.10
2023-02-27T08:47:25.216Z,0.77
2023-02-27T08:49:53.521Z,0.90
2023-02-27T08:52:23.468Z,0.90
2023-02-27T08:54:54.422Z,0.87
2023-02-27T08:57:22.650Z,0.90
2023-02-27T08:59:50.995Z,0.93
2023-02-27T09:02:19.553Z,0.90
2023-02-27T09:04:47.866Z,1.40
2023-02-27T09:07:16.128Z,0.90
2023-02-27T09:09:45.107Z,1.30
2023-02-27T09:12:14.740Z,1.30
2023-02-27T09:14:43.033Z,0.70
2023-02-27T09:17:11.201Z,0.83
2023-02-27T09:19:39.483Z,0.80
2023-02-27T09:22:07.740Z,0.80
2023-02-27T09:24:36.050Z,0.90
2023-02-27T09:27:04.508Z,1.03
2023-02-27T09:29:35.394Z,0.70
2023-02-27T09:32:03.923Z,1.00
2023-02-27T09:34:32.267Z,1.20
2023-02-27T09:37:00.995Z,1.33
2023-02-27T09:39:29.869Z,0.90
2023-02-27T09:42:03.436Z,1.13
2023-02-27T09:44:46.625Z,1.00
2023-02-27T09:47:22.484Z,0.80
2023-02-27T09:50:02.221Z,1.53
2023-02-27T09:52:34.046Z,0.60
2023-02-27T09:55:03.101Z,0.90
2023-02-27T09:57:58.514Z,0.90
2023-02-27T10:00:45.317Z,0.67
2023-02-27T10:06:11.658Z,0.67
2023-02-27T10:08:46.794Z,0.70
2023-02-27T10:11:18.981Z,0.90
2023-02-27T10:13:59.082Z,0.77
2023-02-27T10:16:29.791Z,0.90
2023-02-27T10:19:02.801Z,0.70
2023-02-27T10:21:35.974Z,0.60
2023-02-27T10:24:14.304Z,0.70
2023-02-27T10:26:45.519Z,0.63
2023-02-27T10:29:20.404Z,0.70
2023-02-27T10:31:59.141Z,1.50
2023-02-27T10:34:30.696Z,1.00
2023-02-27T10:37:03.974Z,0.83
2023-02-27T10:39:38.585Z,0.80
2023-02-27T10:42:08.762Z,0.70
2023-02-27T10:44:37.331Z,0.77
2023-02-27T10:47:07.326Z,0.80
2023-02-27T10:49:37.285Z,0.77
2023-02-27T10:52:11.079Z,0.60
2023-02-27T10:54:40.179Z,0.60
2023-02-27T10:57:30.421Z,0.70
2023-02-27T11:00:01.453Z,0.90
2023-02-27T11:02:37.488Z,0.80
2023-02-27T11:05:08.255Z,0.85
2023-02-27T11:07:39.880Z,0.67
2023-02-27T11:10:21.004Z,0.80
2023-02-27T11:13:02.622Z,0.73
2023-02-27T11:15:33.580Z,1.07
2023-02-27T11:18:27.323Z,1.20
2023-02-27T11:21:11.939Z,0.60
2023-02-27T11:23:50.920Z,1.00
2023-02-27T11:26:24.042Z,1.67
2023-02-27T11:29:18.393Z,1.87
2023-02-27T11:31:52.700Z,1.97
2023-02-27T11:34:36.347Z,1.47
2023-02-27T11:37:11.477Z,1.43
2023-02-27T11:39:49.492Z,1.30
2023-02-27T11:42:25.130Z,1.43
2023-02-27T11:44:58.684Z,1.35
2023-02-27T11:47:32.536Z,1.50
2023-02-27T11:50:45.208Z,1.27
2023-02-27T11:53:47.406Z,1.30
2023-02-27T11:56:21.269Z,1.13
2023-02-27T11:59:03.429Z,1.20
2023-02-27T12:01:35.815Z,1.10
2023-02-27T12:04:11.976Z,1.50
2023-02-27T12:06:46.635Z,1.00
2023-02-27T12:09:40.377Z,0.90
2023-02-27T12:12:18.793Z,1.00
2023-02-27T12:14:56.724Z,0.90
2023-02-27T12:17:31.610Z,1.10
2023-02-27T12:20:31.915Z,0.93
2023-02-27T12:23:04.703Z,1.00
2023-02-27T12:25:43.584Z,0.97
2023-02-27T12:28:30.560Z,1.07
2023-02-27T12:33:43.309Z,1.77
2023-02-27T12:36:14.716Z,0.90
2023-02-27T12:38:44.452Z,0.97
2023-02-27T12:41:37.945Z,1.03
2023-02-27T12:44:28.628Z,1.03
2023-02-27T12:47:09.671Z,0.80
2023-02-27T12:49:44.332Z,0.90
2023-02-27T12:52:23.677Z,1.10
2023-02-27T12:55:03.941Z,0.77
2023-02-27T12:58:03.097Z,1.00
2023-02-27T13:00:41.616Z,1.10
2023-02-27T13:03:17.333Z,0.87
2023-02-27T13:05:53.846Z,0.80
2023-02-27T13:08:44.857Z,1.00
2023-02-27T13:11:25.995Z,0.83
2023-02-27T13:14:00.597Z,0.90
2023-02-27T13:16:36.671Z,0.70
2023-02-27T13:19:12.801Z,0.90
2023-02-27T13:21:48.867Z,1.08
2023-02-27T13:24:26.810Z,1.02
2023-02-27T13:27:03.242Z,0.90
2023-02-27T13:29:39.400Z,0.73
2023-02-27T13:32:41.321Z,0.90
2023-02-27T13:35:24.094Z,0.80
2023-02-27T13:37:56.222Z,0.90
2023-02-27T13:40:38.176Z,0.70
2023-02-27T13:43:31.259Z,0.80
2023-02-27T13:46:02.076Z,0.80
2023-02-27T13:48:49.272Z,0.60
2023-02-27T13:51:46.018Z,1.20
2023-02-27T13:54:31.061Z,0.70
2023-02-27T13:57:21.725Z,0.87
2023-02-27T14:00:00.672Z,0.90
2023-02-27T14:02:58.330Z,0.80
2023-02-27T14:05:32.657Z,0.80
2023-02-27T14:08:10.480Z,0.90
2023-02-27T14:10:41.175Z,1.00
2023-02-27T14:13:59.291Z,1.00
2023-02-27T14:16:58.858Z,0.85
2023-02-27T14:19:59.722Z,1.10
2023-02-27T14:22:42.467Z,0.90
2023-02-27T14:25:32.875Z,0.60
2023-02-27T14:28:02.656Z,0.80
2023-02-27T14:30:37.237Z,0.97
2023-02-27T14:33:33.354Z,1.77
2023-02-27T14:36:11.390Z,1.00
2023-02-27T14:38:40.303Z,1.00
2023-02-27T14:41:36.872Z,1.27
2023-02-27T14:44:06.053Z,1.75
2023-02-27T14:46:39.183Z,1.20
2023-02-27T14:49:20.036Z,1.80
2023-02-27T14:51:48.438Z,1.00
2023-02-27T14:54:19.328Z,0.90
2023-02-27T14:56:56.673Z,0.93
2023-02-27T14:59:27.680Z,0.80
2023-02-27T15:01:59.107Z,0.93
2023-02-27T15:04:30.983Z,0.90
2023-02-27T15:07:01.132Z,1.00
2023-02-27T15:09:36.866Z,1.50
2023-02-27T15:12:06.175Z,1.52
2023-02-27T15:14:38.436Z,1.43
2023-02-27T15:17:18.382Z,4.93
2023-02-27T15:19:54.823Z,25.13
2023-02-27T15:22:38.048Z,19.70
2023-02-27T15:25:08.428Z,15.10
2023-02-27T15:27:38.518Z,12.33
2023-02-27T15:30:19.026Z,13.53
2023-02-27T15:32:47.253Z,12.97
2023-02-27T15:35:21.568Z,14.60
2023-02-27T15:37:55.046Z,16.43
2023-02-27T15:40:26.193Z,21.80
2023-02-27T15:42:56.162Z,22.83
2023-02-27T15:45:35.785Z,18.37
2023-02-27T15:48:05.179Z,19.50
2023-02-27T15:50:38.328Z,21.50
2023-02-27T15:53:14.825Z,24.10
2023-02-27T15:55:46.050Z,22.23
2023-02-27T15:58:24.256Z,22.37
2023-02-27T16:01:00.716Z,24.07
2023-02-27T16:03:34.235Z,23.83
2023-02-27T16:06:05.092Z,23.73
2023-02-27T16:08:33.489Z,23.17
2023-02-27T16:11:02.379Z,25.80
2023-02-27T16:13:35.913Z,29.23
2023-02-27T16:16:07.092Z,27.53
2023-02-27T16:18:37.901Z,31.20
2023-02-27T16:21:17.408Z,30.53
2023-02-27T16:23:46.601Z,30.80
2023-02-27T16:26:30.854Z,32.67
2023-02-27T16:29:02.626Z,29.53
2023-02-27T16:31:33.397Z,29.87
2023-02-27T16:34:04.519Z,29.30
2023-02-27T16:36:34.312Z,27.27
2023-02-27T16:39:02.405Z,28.10
2023-02-27T16:41:30.820Z,27.27
2023-02-27T16:43:59.007Z,25.67
2023-02-27T16:46:28.086Z,24.23
2023-02-27T16:49:04.564Z,24.47
2023-02-27T16:51:40.136Z,21.30
2023-02-27T16:54:11.186Z,23.07
2023-02-27T16:56:39.514Z,20.73
2023-02-27T16:59:08.506Z,22.90
2023-02-27T17:01:36.766Z,21.57
2023-02-27T17:04:13.322Z,20.73
2023-02-27T17:06:49.324Z,21.43
2023-02-27T17:09:17.630Z,21.67
2023-02-27T17:11:45.975Z,19.90
2023-02-27T17:14:14.335Z,20.63
2023-02-27T17:16:42.641Z,20.27
2023-02-27T17:19:10.871Z,20.23
2023-02-27T17:21:39.014Z,19.30
2023-02-27T17:24:09.672Z,17.83
2023-02-27T17:26:38.029Z,20.20
2023-02-27T17:29:07.693Z,17.80
2023-02-27T17:31:35.931Z,17.03
2023-02-27T17:34:08.637Z,17.03
2023-02-27T17:36:38.796Z,16.30
2023-02-27T17:39:09.016Z,15.87
2023-02-27T17:41:37.214Z,14.40
2023-02-27T17:44:05.481Z,14.73
2023-02-27T17:46:33.990Z,16.03
2023-02-27T17:49:02.631Z,14.90
2023-02-27T17:51:31.999Z,13.80
2023-02-27T17:54:03.166Z,13.33
2023-02-27T17:56:35.594Z,13.17
2023-02-27T17:59:05.329Z,13.50
2023-02-27T18:01:33.639Z,12.53
2023-02-27T18:04:01.868Z,11.90
2023-02-27T18:06:30.460Z,12.67
2023-02-27T18:08:58.796Z,11.53
2023-02-27T18:11:27.025Z,10.97
2023-02-27T18:13:56.885Z,11.23
2023-02-27T18:16:25.481Z,10.63
2023-02-27T18:18:53.815Z,9.37
2023-02-27T18:21:24.502Z,9.70
2023-02-27T18:23:53.600Z,10.30
2023-02-27T18:26:29.842Z,10.03
2023-02-27T18:29:02.116Z,10.27
2023-02-27T18:31:33.451Z,9.90
2023-02-27T18:34:02.434Z,9.10
2023-02-27T18:36:31.662Z,8.30
2023-02-27T18:39:01.073Z,8.67
2023-02-27T18:41:30.207Z,7.93
2023-02-27T18:43:59.882Z,7.83
2023-02-27T18:46:29.168Z,7.23
2023-02-27T18:48:57.742Z,7.40
2023-02-27T18:51:26.928Z,7.00
2023-02-27T18:53:55.601Z,6.50
2023-02-27T18:56:27.368Z,7.07
2023-02-27T18:59:02.109Z,6.77
2023-02-27T19:01:33.530Z,6.40
2023-02-27T19:04:04.838Z,6.40
2023-02-27T19:06:34.291Z,6.10
2023-02-27T19:09:02.742Z,5.80
2023-02-27T19:11:34.016Z,6.40
2023-02-27T19:14:04.953Z,5.13
2023-02-27T19:16:33.650Z,5.50
2023-02-27T19:19:04.820Z,5.03
2023-02-27T19:21:33.757Z,6.10
2023-02-27T19:24:02.440Z,5.43
2023-02-27T19:26:32.569Z,5.40
2023-02-27T19:29:00.676Z,4.80
2023-02-27T19:31:30.331Z,4.70
2023-02-27T19:33:58.949Z,4.30
2023-02-27T19:36:29.796Z,4.20
2023-02-27T19:38:59.397Z,4.17
2023-02-27T19:41:28.784Z,4.40
2023-02-27T19:43:57.293Z,5.13
2023-02-27T19:46:28.981Z,5.20
2023-02-27T19:49:02.597Z,4.57
2023-02-27T19:51:31.073Z,4.33
2023-02-27T19:53:59.282Z,4.00
2023-02-27T19:56:29.739Z,3.87
2023-02-27T19:58:58.784Z,4.03
2023-02-27T20:01:30.986Z,4.23
2023-02-27T20:04:01.540Z,3.60
2023-02-27T20:06:33.142Z,3.60
2023-02-27T20:09:01.884Z,3.03
2023-02-27T20:11:32.548Z,2.70
2023-02-27T20:14:01.456Z,3.40
2023-02-27T20:16:34.456Z,2.90
2023-02-27T20:19:04.696Z,2.83
2023-02-27T20:21:34.271Z,3.37
2023-02-27T20:24:02.848Z,2.30
2023-02-27T20:26:34.170Z,2.67
2023-02-27T20:29:06.148Z,2.33
2023-02-27T20:31:38.463Z,2.60
2023-02-27T20:34:11.216Z,2.90
2023-02-27T20:36:40.792Z,2.97
2023-02-27T20:39:11.089Z,2.47
2023-02-27T20:41:40.352Z,2.90
2023-02-27T20:44:11.357Z,2.93
2023-02-27T20:46:41.873Z,2.33
2023-02-27T20:49:15.580Z,2.13
2023-02-27T20:51:44.784Z,2.27
2023-02-27T20:54:19.973Z,2.63
2023-02-27T20:56:51.854Z,2.07
2023-02-27T20:59:23.422Z,2.10
2023-02-27T21:01:52.432Z,1.87
2023-02-27T21:04:26.286Z,2.60
2023-02-27T21:06:55.841Z,2.23
2023-02-27T21:09:24.009Z,2.20
2023-02-27T21:11:52.244Z,2.20
2023-02-27T21:14:21.298Z,2.50
2023-02-27T21:16:49.474Z,1.73
2023-02-27T21:19:17.640Z,2.30
2023-02-27T21:21:47.109Z,2.30
2023-02-27T21:24:16.714Z,2.07
2023-02-27T21:26:45.077Z,2.20
2023-02-27T21:29:18.915Z,2.00
2023-02-27T21:31:50.088Z,2.23
2023-02-27T21:34:20.717Z,2.87
2023-02-27T21:36:51.477Z,1.60
2023-02-27T21:39:23.133Z,2.10
2023-02-27T21:41:51.385Z,1.80
2023-02-27T21:44:24.915Z,2.40
2023-02-27T21:46:53.808Z,2.00
2023-02-27T21:49:24.890Z,2.53
2023-02-27T21:51:54.884Z,1.90
2023-02-27T21:54:23.240Z,2.30
2023-02-27T21:56:51.494Z,1.70
2023-02-27T21:59:21.648Z,1.80
2023-02-27T22:01:50.063Z,1.67
2023-02-27T22:04:20.486Z,1.80
2023-02-27T22:06:50.124Z,1.80
2023-02-27T22:09:20.508Z,1.50
2023-02-27T22:11:49.812Z,1.90
2023-02-27T22:14:18.636Z,1.67
2023-02-27T22:16:47.134Z,1.60
2023-02-27T22:19:19.972Z,1.80
2023-02-27T22:21:48.724Z,1.47
2023-02-27T22:24:16.943Z,1.83
2023-02-27T22:26:47.788Z,1.43
2023-02-27T22:29:17.054Z,1.93
2023-02-27T22:31:45.611Z,1.70
2023-02-27T22:34:18.577Z,1.67
2023-02-27T22:36:52.065Z,1.40
2023-02-27T22:39:21.267Z,1.60
2023-02-27T22:41:51.322Z,1.80
2023-02-27T22:44:20.621Z,1.30
2023-02-27T22:46:50.697Z,1.67
2023-02-27T22:49:22.140Z,1.40
2023-02-27T22:51:51.904Z,1.30
2023-02-27T22:54:22.903Z,1.70
2023-02-27T22:56:56.943Z,1.27
2023-02-27T22:59:26.414Z,1.60
2023-02-27T23:01:55.003Z,1.17
2023-02-27T23:04:23.266Z,1.60
2023-02-27T23:06:52.902Z,1.30
2023-02-27T23:09:24.173Z,1.40
2023-02-27T23:11:54.311Z,1.50
2023-02-27T23:14:23.396Z,1.50
2023-02-27T23:16:51.707Z,1.50
2023-02-27T23:19:22.039Z,1.60
2023-02-27T23:21:50.344Z,1.10
2023-02-27T23:24:20.118Z,1.53
2023-02-27T23:26:50.701Z,1.57
2023-02-27T23:29:20.781Z,1.80
2023-02-27T23:31:49.210Z,1.70
2023-02-27T23:34:17.549Z,1.60
2023-02-27T23:36:45.798Z,1.33
2023-02-27T23:39:14.081Z,1.37
2023-02-27T23:41:42.489Z,1.60
2023-02-27T23:44:10.743Z,1.47
2023-02-27T23:46:40.620Z,1.47
2023-02-27T23:49:08.902Z,1.20
2023-02-27T23:51:37.317Z,1.10
2023-02-27T23:54:05.846Z,1.40
2023-02-27T23:56:34.395Z,1.30
2023-02-27T23:59:05.416Z,1.30
